Aérodrome :
LOGIN :

S'inscrire | Disclaimer

   EN    FR    IT 

 










Légende :    VFR   VFR Marginal   IFR   IFR Intensif   IFR Très Intensif
Visi : 
Plafond : 
>= 8 km
>= 3000ft
5 à 8 km
1000 à 3000 ft
1500m à 5 km
500 à 1000 ft
800 à 1500m
200 à 500 ft
< 800m
< 200 ft
Symboles :   Orages  Brouillard  Fortes neiges  Fortes précipitations  Vent > 20 kt
SIGMETs :   Divers  Orages  Givrage  Turbulence  Onde Orograph.  Cendres Volcan.






- Altitude de l'aérodrome : 412 ft
- Code IATA : ADB


LTBJ - Adnan Menderes

DERNIER METAR :
  • 300220Z VRB01KT CAVOK 12/11 Q1016 NOSIG

METARs EXPIRÉS :
  • 300150Z VRB02KT CAVOK 12/11 Q1016 NOSIG RMK RWY16 13003KT 040V170
  • 300120Z 34003KT 290V020 CAVOK 12/11 Q1016 NOSIG RMK RWY16 VRB02KT
  • 300050Z 23002KT CAVOK 12/12 Q1016 NOSIG RMK RWY16 VRB02KT
  • 300020Z VRB01KT CAVOK 12/11 Q1016 NOSIG RMK RWY16 12004KT
  • 292350Z VRB02KT CAVOK 11/11 Q1016 NOSIG RMK RWY16 16002KT

TAF TAF LTBJ
Valide du 30 à 00h jusqu'au 31 à 00h UTC


292240Z 3000/3024 VRB02KT CAVOK
BECMG 3008/3010 18012KT FEW030



MET'MAP, la Météo Aéronautique d'un coup d'oeil ! - Copyright ORBIFLY Décembre 2007 - Disclaimer

ORBIFLY MET'MAP TEAM :

Programmation & Développement : Alexandra Zaïnal
Sur une idée originale de : Baudouin d'Aumeries
Assistance à la programmation : Marc-Olivier Méhu
Soutien technique & logistique : Manuel Goepfert

Contact : metmap@orbifly.com




SOURCES & CREDITS :

   NOAA